Time;durP1;ratioP1;P1;durP2;ratioP2;P2;SDS_P1;SDS_P2;PMS_P1;PMS_P2;Temp;Humidity;BMP_temperature;BMP_pressure;BME280_temperature;BME280_humidity;BME280_pressure;Samples;Min_cycle;Max_cycle;Signal;HPM_P1;HPM_P2
2022/05/13 00:02:16;;;;;;;27.40;25.47;;;18.70;91.30;;;;;;5144793;27;20513;-73
2022/05/13 00:04:43;;;;;;;26.93;25.40;;;18.70;91.20;;;;;;5138812;27;20473;-73
2022/05/13 00:07:09;;;;;;;26.90;25.30;;;18.70;91.00;;;;;;5140853;27;20472;-73
2022/05/13 00:09:58;;;;;;;27.93;26.23;;;18.60;91.20;;;;;;5140683;27;20459;-73
2022/05/13 00:12:29;;;;;;;27.33;25.70;;;18.60;91.30;;;;;;5137690;27;20451;-73
2022/05/13 00:14:57;;;;;;;25.87;24.37;;;18.60;91.40;;;;;;5145754;27;21326;-73
2022/05/13 00:17:25;;;;;;;26.77;25.03;;;18.60;91.50;;;;;;5144167;27;20887;-73
2022/05/13 00:19:52;;;;;;;27.33;25.53;;;18.60;91.40;;;;;;5139572;27;20451;-73
2022/05/13 00:22:19;;;;;;;27.87;25.90;;;18.60;91.20;;;;;;5148786;27;20461;-73
2022/05/13 00:24:46;;;;;;;27.77;25.47;;;18.80;90.70;;;;;;5148695;27;20474;-73
2022/05/13 00:27:14;;;;;;;26.63;25.03;;;18.70;90.60;;;;;;5141703;27;20546;-73
2022/05/13 00:29:42;;;;;;;27.03;25.27;;;18.70;91.10;;;;;;5143521;27;20459;-73
2022/05/13 00:32:09;;;;;;;27.40;25.13;;;18.60;91.50;;;;;;5133914;27;20755;-73
2022/05/13 00:34:36;;;;;;;27.10;25.30;;;18.60;91.80;;;;;;5146892;27;20475;-73
2022/05/13 00:37:03;;;;;;;27.60;25.87;;;18.50;92.00;;;;;;5144640;27;20546;-73
2022/05/13 00:39:30;;;;;;;26.90;25.17;;;18.50;92.20;;;;;;5141076;27;20530;-73
2022/05/13 00:42:06;;;;;;;26.90;25.27;;;18.50;92.50;;;;;;5142175;27;20534;-73
2022/05/13 00:44:33;;;;;;;26.77;24.67;;;18.50;92.50;;;;;;5145127;27;20466;-73
2022/05/13 00:47:02;;;;;;;27.00;25.20;;;18.50;92.20;;;;;;5140390;27;20478;-73
2022/05/13 00:49:31;;;;;;;27.33;25.63;;;18.50;92.30;;;;;;5146541;27;20455;-73
2022/05/13 00:51:59;;;;;;;26.03;24.43;;;18.60;92.10;;;;;;5146704;27;20458;-73
2022/05/13 00:54:26;;;;;;;26.73;24.90;;;18.50;92.10;;;;;;5135512;27;20495;-73
2022/05/13 00:56:53;;;;;;;27.80;26.10;;;18.50;92.20;;;;;;5139992;27;20462;-73
2022/05/13 00:59:23;;;;;;;27.03;25.00;;;18.50;92.30;;;;;;5145512;27;20452;-73
2022/05/13 01:01:50;;;;;;;26.50;24.90;;;18.50;92.10;;;;;;5147511;27;20459;-73
2022/05/13 01:04:20;;;;;;;25.70;24.20;;;18.60;91.80;;;;;;5138511;27;20474;-73
2022/05/13 01:06:51;;;;;;;26.63;25.03;;;18.60;91.80;;;;;;5137891;27;20470;-73
2022/05/13 01:09:18;;;;;;;26.83;25.20;;;18.60;92.00;;;;;;5146296;27;20928;-73
2022/05/13 01:11:48;;;;;;;26.60;25.00;;;18.60;91.90;;;;;;5143523;27;20881;-73
2022/05/13 01:14:20;;;;;;;27.03;25.30;;;18.50;92.10;;;;;;5145072;27;20478;-73
2022/05/13 01:19:33;;;;;;;27.60;25.90;;;18.50;92.20;;;;;;5143344;27;20446;-73
2022/05/13 01:22:14;;;;;;;28.13;26.43;;;18.50;92.20;;;;;;5138223;27;20534;-73
2022/05/13 01:24:41;;;;;;;26.67;25.07;;;18.50;92.10;;;;;;5142902;27;20565;-73
2022/05/13 01:27:08;;;;;;;27.67;25.90;;;18.50;92.20;;;;;;5141475;27;20475;-73
2022/05/13 01:29:35;;;;;;;27.77;26.10;;;18.50;92.20;;;;;;5147293;27;20459;-73
2022/05/13 01:32:02;;;;;;;28.63;26.77;;;18.50;92.30;;;;;;5143118;27;20457;-73
2022/05/13 01:34:29;;;;;;;27.07;25.47;;;18.60;92.30;;;;;;5139997;27;20475;-73
2022/05/13 01:36:56;;;;;;;27.80;26.10;;;18.60;92.30;;;;;;5137754;27;20447;-73
2022/05/13 01:39:24;;;;;;;28.43;26.53;;;18.60;92.40;;;;;;5146973;27;20486;-73
2022/05/13 01:41:51;;;;;;;28.20;26.40;;;18.50;92.50;;;;;;5138270;27;21104;-73
2022/05/13 01:44:18;;;;;;;28.83;26.80;;;18.50;93.00;;;;;;5141012;27;20840;-73
2022/05/13 01:46:46;;;;;;;27.97;26.40;;;18.50;93.00;;;;;;5141963;27;20455;-73
2022/05/13 01:49:13;;;;;;;29.50;27.70;;;18.50;93.10;;;;;;5138466;27;20451;-73
2022/05/13 01:51:40;;;;;;;27.33;25.70;;;18.50;93.00;;;;;;5140453;27;20558;-73
2022/05/13 01:54:07;;;;;;;26.60;24.77;;;18.40;93.40;;;;;;5135372;27;20478;-73
2022/05/13 01:56:35;;;;;;;27.40;25.70;;;18.40;92.80;;;;;;5138909;27;20455;-73
2022/05/13 01:59:02;;;;;;;27.90;26.10;;;18.30;92.70;;;;;;5141746;27;20528;-74
2022/05/13 02:01:29;;;;;;;26.60;24.57;;;18.30;92.90;;;;;;5142269;27;20451;-73
2022/05/13 02:03:56;;;;;;;26.33;24.43;;;18.30;92.60;;;;;;5143465;27;21038;-73
2022/05/13 02:06:25;;;;;;;27.03;25.43;;;18.20;90.80;;;;;;5144054;27;20555;-73
2022/05/13 02:08:54;;;;;;;26.40;24.80;;;18.20;91.50;;;;;;5144464;27;20483;-73
2022/05/13 02:11:22;;;;;;;25.77;24.27;;;18.10;92.10;;;;;;5139681;27;20457;-73
2022/05/13 02:13:51;;;;;;;26.67;25.07;;;18.20;92.10;;;;;;5144006;27;20569;-73
2022/05/13 02:16:18;;;;;;;25.80;24.27;;;18.20;92.00;;;;;;5134949;27;20471;-73
2022/05/13 02:18:45;;;;;;;27.23;25.03;;;18.20;91.90;;;;;;5133383;27;20940;-73
2022/05/13 02:21:13;;;;;;;26.23;24.53;;;18.20;92.40;;;;;;5144345;27;21094;-73
2022/05/13 02:23:41;;;;;;;26.90;25.03;;;18.10;92.80;;;;;;5136189;27;20562;-73
2022/05/13 02:26:09;;;;;;;27.60;25.70;;;18.10;93.30;;;;;;5141979;27;20907;-73
2022/05/13 02:28:37;;;;;;;27.17;25.07;;;18.00;93.70;;;;;;5141468;27;20475;-73
2022/05/13 02:31:06;;;;;;;26.20;24.70;;;18.00;93.80;;;;;;5140691;27;21051;-73
2022/05/13 02:33:33;;;;;;;28.27;26.30;;;17.90;94.10;;;;;;5147853;27;20494;-73
2022/05/13 02:36:01;;;;;;;25.50;23.90;;;17.90;93.90;;;;;;5136238;27;20449;-73
2022/05/13 02:38:28;;;;;;;28.27;25.97;;;17.90;92.90;;;;;;5146191;27;21100;-73
2022/05/13 02:41:13;;;;;;;27.13;25.13;;;17.90;93.10;;;;;;5140627;27;20461;-73
2022/05/13 02:43:41;;;;;;;26.07;24.27;;;17.90;92.90;;;;;;5136661;27;20462;-73
2022/05/13 02:46:09;;;;;;;25.70;23.80;;;17.90;92.90;;;;;;5143423;27;20489;-73
2022/05/13 02:48:37;;;;;;;26.97;25.10;;;17.90;92.80;;;;;;5140565;27;20478;-73
2022/05/13 02:51:04;;;;;;;26.33;24.53;;;17.90;92.50;;;;;;5150330;27;20447;-73
2022/05/13 02:53:31;;;;;;;25.80;24.30;;;17.90;92.40;;;;;;5145779;27;20459;-73
2022/05/13 02:55:58;;;;;;;25.37;23.60;;;17.90;92.40;;;;;;5149376;27;20443;-73
2022/05/13 02:58:25;;;;;;;26.50;24.80;;;17.90;92.40;;;;;;5149097;27;20451;-73
2022/05/13 03:00:53;;;;;;;26.17;24.37;;;17.90;92.20;;;;;;5149820;27;20537;-72
2022/05/13 03:03:21;;;;;;;25.90;24.30;;;17.90;92.20;;;;;;5141007;27;20439;-73
2022/05/13 03:05:48;;;;;;;25.97;24.57;;;17.80;92.40;;;;;;5145931;27;20840;-73
2022/05/13 03:08:15;;;;;;;27.30;24.90;;;17.90;92.00;;;;;;5137982;27;20477;-73
2022/05/13 03:10:42;;;;;;;26.97;25.17;;;17.90;91.60;;;;;;5149642;27;20458;-73
2022/05/13 03:13:10;;;;;;;27.03;25.00;;;17.80;91.70;;;;;;5148861;27;20482;-73
2022/05/13 03:15:37;;;;;;;26.03;24.50;;;17.80;91.50;;;;;;5142654;27;20467;-73
2022/05/13 03:18:05;;;;;;;28.10;26.40;;;17.80;91.50;;;;;;5146290;27;20808;-73
2022/05/13 03:20:33;;;;;;;27.53;25.80;;;17.80;91.50;;;;;;5141404;27;20458;-73
2022/05/13 03:23:00;;;;;;;27.47;25.27;;;17.80;91.70;;;;;;5139377;27;20567;-73
2022/05/13 03:25:28;;;;;;;26.90;25.17;;;17.70;92.20;;;;;;5142248;27;20495;-73
2022/05/13 03:27:56;;;;;;;26.50;24.87;;;17.80;92.30;;;;;;5136634;27;20482;-73
2022/05/13 03:30:26;;;;;;;29.30;27.30;;;17.80;92.20;;;;;;5147038;27;20474;-73
2022/05/13 03:32:54;;;;;;;27.90;26.10;;;17.80;92.40;;;;;;5149601;27;20503;-73
2022/05/13 03:35:23;;;;;;;25.20;23.63;;;17.70;92.70;;;;;;5143799;27;20471;-73
2022/05/13 03:37:52;;;;;;;26.47;24.87;;;17.70;92.90;;;;;;5143492;27;20754;-73
2022/05/13 03:40:19;;;;;;;28.93;27.23;;;17.70;93.30;;;;;;5131870;27;20455;-73
2022/05/13 03:42:46;;;;;;;26.67;24.97;;;17.60;93.60;;;;;;5146870;27;20454;-73
2022/05/13 03:45:15;;;;;;;29.67;27.97;;;17.70;93.40;;;;;;5143321;27;20835;-73
2022/05/13 03:47:42;;;;;;;26.00;24.10;;;17.70;93.20;;;;;;5144955;27;20477;-73
2022/05/13 03:50:10;;;;;;;26.37;24.53;;;17.70;93.20;;;;;;5139027;27;20456;-73
2022/05/13 03:52:37;;;;;;;27.93;25.80;;;17.60;93.50;;;;;;5144820;27;20465;-73
2022/05/13 03:55:07;;;;;;;26.60;25.10;;;17.60;93.50;;;;;;5142469;27;20826;-73
2022/05/13 03:57:34;;;;;;;27.27;25.47;;;17.60;93.80;;;;;;5145045;27;20538;-73
2022/05/13 04:00:03;;;;;;;26.47;24.47;;;17.60;93.90;;;;;;5133446;27;20828;-73
2022/05/13 04:02:30;;;;;;;27.70;25.80;;;17.60;94.10;;;;;;5146450;27;20467;-73
2022/05/13 04:10:27;;;;;;;26.47;24.77;;;17.70;94.20;;;;;;5147624;27;20482;-73
2022/05/13 04:18:23;;;;;;;26.07;24.27;;;17.60;94.40;;;;;;5132842;27;20920;-73
2022/05/13 04:20:50;;;;;;;26.67;24.77;;;17.70;94.20;;;;;;5145760;27;20451;-73
2022/05/13 04:23:18;;;;;;;26.43;24.40;;;17.70;94.10;;;;;;5130717;27;20467;-73
2022/05/13 04:25:47;;;;;;;26.30;24.60;;;17.70;94.10;;;;;;5146053;27;21018;-73
2022/05/13 04:28:14;;;;;;;26.17;24.07;;;17.70;94.00;;;;;;5137961;27;20468;-73
2022/05/13 04:30:41;;;;;;;24.80;23.30;;;17.80;93.70;;;;;;5146178;27;20447;-73
2022/05/13 04:33:09;;;;;;;25.33;23.83;;;17.80;93.60;;;;;;5138982;27;20562;-73
2022/05/13 04:35:35;;;;;;;27.20;25.53;;;17.80;93.40;;;;;;5147347;27;21076;-73
2022/05/13 04:38:02;;;;;;;27.23;25.57;;;17.80;93.30;;;;;;5147926;27;20443;-73
2022/05/13 04:40:29;;;;;;;25.73;24.27;;;17.90;92.80;;;;;;5146007;27;20440;-73
2022/05/13 04:42:57;;;;;;;26.03;24.27;;;18.00;92.60;;;;;;5137753;27;20462;-73
2022/05/13 04:45:26;;;;;;;27.13;25.33;;;17.90;92.90;;;;;;5143600;27;20772;-75
2022/05/13 04:50:38;;;;;;;28.30;25.97;;;17.90;93.10;;;;;;5139839;27;20447;-72
2022/05/13 04:53:06;;;;;;;26.30;24.70;;;17.90;93.30;;;;;;5135535;27;20471;-73
2022/05/13 04:55:34;;;;;;;26.80;24.97;;;17.90;93.10;;;;;;5143678;27;20566;-73
2022/05/13 04:58:03;;;;;;;27.73;25.57;;;17.90;93.00;;;;;;5139088;27;20457;-73
2022/05/13 05:00:30;;;;;;;28.57;26.57;;;17.90;93.20;;;;;;5130530;27;20455;-73
2022/05/13 05:02:56;;;;;;;25.77;24.23;;;17.90;93.40;;;;;;5142956;27;20512;-73
2022/05/13 05:05:23;;;;;;;27.23;25.27;;;17.90;93.50;;;;;;5137501;27;20493;-73
2022/05/13 05:07:50;;;;;;;25.10;23.60;;;17.80;93.50;;;;;;5140492;27;20448;-73
2022/05/13 05:10:18;;;;;;;26.13;24.63;;;17.90;93.30;;;;;;5148756;27;20458;-73
2022/05/13 05:12:47;;;;;;;25.60;24.00;;;18.00;92.70;;;;;;5141492;27;20457;-73
2022/05/13 05:15:15;;;;;;;28.80;27.00;;;17.90;92.90;;;;;;5142394;27;20486;-73
2022/05/13 05:17:42;;;;;;;25.90;24.20;;;17.90;93.20;;;;;;5130293;27;20596;-73
2022/05/13 05:20:10;;;;;;;24.63;23.23;;;17.90;93.20;;;;;;5140448;27;20447;-73
2022/05/13 05:22:37;;;;;;;26.53;24.73;;;17.90;93.00;;;;;;5139205;27;20542;-73
2022/05/13 05:25:05;;;;;;;27.50;25.60;;;18.00;92.90;;;;;;5142471;27;20472;-71
2022/05/13 05:27:35;;;;;;;28.10;26.20;;;17.90;93.00;;;;;;5144226;27;20475;-69
2022/05/13 05:30:03;;;;;;;26.67;25.07;;;17.90;92.70;;;;;;5146245;27;20478;-69
2022/05/13 05:32:31;;;;;;;28.83;26.90;;;18.00;92.60;;;;;;5138161;27;20570;-70
2022/05/13 05:34:58;;;;;;;28.90;27.07;;;18.10;92.30;;;;;;5142383;27;20477;-70
2022/05/13 05:37:25;;;;;;;27.67;25.83;;;18.10;92.00;;;;;;5135394;27;20463;-71
2022/05/13 05:39:52;;;;;;;26.60;24.90;;;18.30;91.50;;;;;;5139772;27;20970;-80
2022/05/13 05:42:19;;;;;;;26.33;24.53;;;18.40;90.10;;;;;;5139767;27;20539;-73
2022/05/13 05:44:46;;;;;;;29.47;27.33;;;18.40;89.50;;;;;;5139192;27;20578;-75
2022/05/13 05:47:13;;;;;;;30.10;28.10;;;18.50;89.10;;;;;;5145855;27;21256;-76
2022/05/13 05:49:41;;;;;;;27.97;26.17;;;18.50;88.60;;;;;;5145339;27;20995;-82
2022/05/13 05:52:09;;;;;;;28.07;25.90;;;18.50;89.20;;;;;;5140398;27;20455;-78
2022/05/13 05:57:32;;;;;;;29.80;27.90;;;18.40;90.70;;;;;;5059084;28;20556;-76
2022/05/13 06:00:00;;;;;;;29.23;27.43;;;18.40;90.60;;;;;;5113669;27;20465;-76
2022/05/13 06:02:27;;;;;;;29.80;28.10;;;18.50;90.20;;;;;;5136721;27;20463;-76
2022/05/13 06:04:55;;;;;;;29.63;27.83;;;18.60;89.80;;;;;;5146634;27;20485;-75
2022/05/13 06:07:22;;;;;;;30.80;28.80;;;18.70;89.70;;;;;;5150250;27;20459;-75
2022/05/13 06:09:53;;;;;;;27.07;25.47;;;18.80;88.90;;;;;;5135142;27;20503;-76
2022/05/13 06:12:24;;;;;;;28.80;26.97;;;18.70;89.10;;;;;;5149651;27;20446;-76
2022/05/13 06:14:50;;;;;;;28.57;26.33;;;18.70;88.70;;;;;;5147857;27;21017;-77
2022/05/13 06:17:17;;;;;;;29.73;27.90;;;18.70;88.80;;;;;;5137510;27;20450;-78
2022/05/13 06:19:44;;;;;;;29.17;27.23;;;18.70;88.90;;;;;;5145792;27;20459;-78
2022/05/13 06:22:13;;;;;;;28.00;26.20;;;18.80;89.10;;;;;;5149707;27;20524;-80
2022/05/13 06:24:45;;;;;;;26.30;24.70;;;18.80;88.90;;;;;;5140643;27;20908;-73
2022/05/13 06:27:12;;;;;;;28.27;26.47;;;18.90;88.50;;;;;;5145419;27;20446;-74
2022/05/13 06:29:39;;;;;;;29.90;28.00;;;19.00;88.10;;;;;;5146670;27;20831;-74
2022/05/13 06:32:07;;;;;;;26.40;24.70;;;19.10;87.90;;;;;;5142654;27;20459;-74
2022/05/13 06:34:34;;;;;;;26.27;24.50;;;19.30;87.30;;;;;;5144125;27;20478;-73
2022/05/13 06:37:01;;;;;;;27.73;25.73;;;19.60;86.70;;;;;;5141159;27;20823;-74
2022/05/13 06:39:29;;;;;;;29.23;27.07;;;19.80;85.10;;;;;;5140494;27;20443;-75
2022/05/13 06:41:56;;;;;;;28.30;26.50;;;19.90;84.50;;;;;;5144346;27;20455;-78
2022/05/13 06:44:23;;;;;;;31.13;28.90;;;20.20;83.20;;;;;;5144902;27;20911;-75
2022/05/13 06:46:49;;;;;;;28.67;26.87;;;20.30;82.10;;;;;;5141221;27;20768;-75
2022/05/13 06:49:16;;;;;;;32.87;30.03;;;20.40;81.70;;;;;;5142862;27;20478;-76
2022/05/13 06:51:43;;;;;;;29.73;27.93;;;20.50;81.20;;;;;;5148890;27;20956;-75
2022/05/13 06:54:11;;;;;;;30.10;27.93;;;20.60;80.20;;;;;;5142400;27;20561;-77
2022/05/13 06:56:42;;;;;;;30.57;28.33;;;20.70;79.60;;;;;;5139423;27;20456;-75
2022/05/13 06:59:10;;;;;;;31.80;29.60;;;20.60;80.00;;;;;;5147947;27;21129;-77
2022/05/13 07:01:38;;;;;;;29.57;27.67;;;20.60;79.50;;;;;;5146376;27;20454;-75
2022/05/13 07:04:05;;;;;;;27.93;26.23;;;20.40;79.30;;;;;;5148750;27;20470;-76
2022/05/13 07:06:32;;;;;;;32.33;30.33;;;20.30;78.90;;;;;;5142934;27;20459;-76
2022/05/13 07:08:59;;;;;;;34.37;31.90;;;20.20;78.70;;;;;;5147094;27;20597;-75
2022/05/13 07:11:26;;;;;;;29.10;27.27;;;20.20;79.10;;;;;;5143517;27;21059;-76
2022/05/13 07:13:54;;;;;;;30.50;28.40;;;20.20;79.10;;;;;;5141295;27;20585;-77
2022/05/13 07:16:22;;;;;;;30.20;28.40;;;20.30;78.90;;;;;;5141169;27;20473;-72
2022/05/13 07:18:50;;;;;;;31.90;29.77;;;20.10;79.50;;;;;;5148482;27;20979;-75
2022/05/13 07:21:17;;;;;;;29.53;27.60;;;20.20;79.70;;;;;;5147077;27;20448;-78
2022/05/13 07:23:44;;;;;;;30.60;27.90;;;20.30;79.70;;;;;;5137907;27;22375;-77
2022/05/13 07:26:12;;;;;;;31.00;28.93;;;20.20;79.50;;;;;;5144712;27;20456;-73
2022/05/13 07:28:40;;;;;;;31.23;28.80;;;20.20;79.70;;;;;;5141484;27;20538;-74
2022/05/13 07:31:08;;;;;;;30.50;28.23;;;20.20;79.40;;;;;;5146031;27;20510;-74
2022/05/13 07:33:36;;;;;;;30.13;28.23;;;20.20;79.50;;;;;;5138337;27;20464;-76
2022/05/13 07:36:05;;;;;;;30.67;28.40;;;20.10;79.20;;;;;;5137059;27;20474;-76
2022/05/13 07:38:32;;;;;;;31.63;29.50;;;20.20;79.20;;;;;;5142708;27;20877;-76
2022/05/13 07:41:17;;;;;;;30.17;28.27;;;20.20;79.00;;;;;;5149599;27;20503;-75
2022/05/13 07:43:44;;;;;;;28.60;26.90;;;20.20;79.00;;;;;;5143687;27;20451;-76
2022/05/13 07:46:12;;;;;;;30.53;28.43;;;20.20;79.50;;;;;;5146683;27;20457;-76
2022/05/13 07:48:40;;;;;;;33.73;30.37;;;20.20;78.60;;;;;;5143780;27;20928;-75
2022/05/13 07:51:07;;;;;;;33.17;30.23;;;20.30;78.50;;;;;;5144800;27;20463;-75
2022/05/13 07:53:34;;;;;;;29.67;27.13;;;20.40;78.30;;;;;;5141580;27;21094;-75
2022/05/13 07:56:01;;;;;;;29.83;28.03;;;20.40;78.30;;;;;;5147506;27;20446;-75
2022/05/13 07:58:31;;;;;;;30.83;28.83;;;20.40;78.40;;;;;;5141146;27;20504;-76
2022/05/13 08:00:58;;;;;;;29.47;27.23;;;20.50;78.20;;;;;;5134265;27;20953;-78
2022/05/13 08:03:30;;;;;;;29.90;27.80;;;20.60;77.70;;;;;;5145316;27;20987;-76
2022/05/13 08:06:03;;;;;;;31.13;29.30;;;20.70;77.20;;;;;;5134116;27;20783;-76
2022/05/13 08:08:31;;;;;;;28.13;26.43;;;20.90;76.30;;;;;;5138418;27;21078;-75
2022/05/13 08:11:00;;;;;;;38.00;30.10;;;21.10;74.20;;;;;;5136392;27;20468;-75
2022/05/13 08:13:29;;;;;;;30.97;28.37;;;21.30;74.40;;;;;;5144808;27;20478;-75
2022/05/13 08:15:56;;;;;;;30.07;28.10;;;21.50;74.40;;;;;;5146601;27;20812;-75
2022/05/13 08:18:25;;;;;;;31.23;28.73;;;21.70;73.40;;;;;;5136963;27;20458;-75
2022/05/13 08:20:54;;;;;;;31.20;29.17;;;21.90;73.40;;;;;;5137149;27;20443;-75
2022/05/13 08:23:22;;;;;;;32.00;30.03;;;22.10;74.00;;;;;;5139704;27;20483;-75
2022/05/13 08:25:50;;;;;;;29.57;27.40;;;22.20;70.30;;;;;;5139414;27;20528;-75
2022/05/13 08:28:18;;;;;;;28.73;26.90;;;22.30;70.30;;;;;;5138114;27;21130;-75
2022/05/13 08:30:45;;;;;;;29.23;27.10;;;22.30;66.20;;;;;;5130771;27;20568;-75
2022/05/13 08:33:13;;;;;;;27.73;25.77;;;22.20;60.00;;;;;;5140650;27;21261;-75
2022/05/13 08:35:42;;;;;;;30.70;28.90;;;22.00;61.80;;;;;;5141091;27;20506;-75
2022/05/13 08:38:11;;;;;;;29.03;26.93;;;21.80;60.60;;;;;;5140269;27;20455;-75
2022/05/13 08:40:55;;;;;;;28.00;26.13;;;21.60;62.80;;;;;;5136652;27;20450;-75
2022/05/13 08:43:23;;;;;;;30.60;28.50;;;21.30;61.90;;;;;;5143819;27;21073;-75
2022/05/13 08:45:54;;;;;;;28.30;26.40;;;21.00;62.30;;;;;;5134858;27;21035;-75
2022/05/13 08:48:30;;;;;;;29.27;27.37;;;21.00;63.40;;;;;;5135800;27;20459;-75
2022/05/13 08:51:05;;;;;;;29.23;27.33;;;21.10;62.40;;;;;;5145954;27;20781;-75
2022/05/13 08:53:41;;;;;;;29.70;27.70;;;20.80;64.00;;;;;;5134021;27;21130;-76
2022/05/13 08:56:10;;;;;;;29.97;28.00;;;20.80;66.00;;;;;;5144221;27;20451;-75
2022/05/13 08:58:43;;;;;;;31.40;29.23;;;21.10;66.50;;;;;;5131427;27;20453;-75
2022/05/13 09:01:15;;;;;;;30.97;28.77;;;21.10;65.80;;;;;;5138481;27;20567;-75
2022/05/13 09:03:50;;;;;;;29.80;27.73;;;21.10;64.80;;;;;;5133158;27;20466;-75
2022/05/13 09:06:28;;;;;;;30.17;28.07;;;21.30;65.60;;;;;;5140945;27;20507;-74
2022/05/13 09:08:58;;;;;;;30.90;28.90;;;21.60;64.40;;;;;;5136401;27;20534;-75
2022/05/13 09:11:31;;;;;;;30.27;28.30;;;21.70;61.30;;;;;;5144106;27;20876;-75
2022/05/13 09:14:08;;;;;;;30.47;28.60;;;21.50;61.50;;;;;;5134145;27;20555;-77
2022/05/13 09:16:53;;;;;;;30.70;28.77;;;21.40;61.60;;;;;;5137476;27;20458;-74
2022/05/13 09:19:31;;;;;;;27.87;25.70;;;21.60;59.40;;;;;;5143447;27;20451;-75
2022/05/13 09:21:59;;;;;;;29.00;27.10;;;21.10;59.90;;;;;;5145259;27;20729;-75
2022/05/13 09:24:27;;;;;;;29.57;27.30;;;20.90;62.00;;;;;;5141201;27;20599;-74
2022/05/13 09:26:54;;;;;;;30.00;28.00;;;20.70;63.10;;;;;;5140279;27;20520;-75
2022/05/13 09:29:21;;;;;;;29.80;27.70;;;20.90;63.90;;;;;;5136076;27;20524;-74
2022/05/13 09:32:04;;;;;;;29.80;27.43;;;21.30;63.10;;;;;;5143080;27;20450;-75
2022/05/13 09:34:35;;;;;;;28.47;26.77;;;21.50;59.50;;;;;;5136994;27;20536;-74
2022/05/13 09:37:12;;;;;;;28.13;26.27;;;21.10;61.70;;;;;;5129493;27;20445;-75
2022/05/13 09:39:44;;;;;;;30.10;27.50;;;21.40;62.30;;;;;;5145111;27;20534;-74
2022/05/13 09:42:23;;;;;;;29.33;27.50;;;21.90;60.70;;;;;;5143071;27;21036;-75
2022/05/13 09:44:51;;;;;;;30.73;28.90;;;22.10;59.70;;;;;;5140490;27;20547;-74
2022/05/13 09:47:28;;;;;;;31.00;28.53;;;22.10;58.90;;;;;;5143361;27;20547;-75
2022/05/13 09:49:55;;;;;;;33.40;30.97;;;22.30;59.00;;;;;;5139279;27;20475;-75
2022/05/13 09:52:29;;;;;;;29.07;27.17;;;22.60;59.50;;;;;;5143582;27;20478;-76
2022/05/13 09:55:13;;;;;;;27.73;25.93;;;22.70;57.50;;;;;;5147460;27;20846;-75
2022/05/13 09:57:40;;;;;;;30.40;28.30;;;22.60;57.90;;;;;;5141869;27;20936;-75
2022/05/13 10:00:13;;;;;;;31.67;29.27;;;22.60;58.20;;;;;;5147691;27;20531;-74
2022/05/13 10:02:42;;;;;;;28.60;26.40;;;22.80;57.80;;;;;;5140313;27;20455;-74
2022/05/13 10:05:16;;;;;;;30.43;28.60;;;22.80;58.00;;;;;;5143653;27;20472;-75
2022/05/13 10:07:54;;;;;;;30.13;28.23;;;22.70;56.80;;;;;;5141458;27;20459;-75
2022/05/13 10:15:59;;;;;;;27.60;25.23;;;23.10;56.20;;;;;;5139197;27;20446;-78
2022/05/13 10:18:31;;;;;;;29.40;27.50;;;23.10;56.30;;;;;;5140856;27;20470;-76
2022/05/13 10:21:03;;;;;;;32.17;29.73;;;23.30;56.50;;;;;;5140390;27;20491;-77
2022/05/13 10:23:34;;;;;;;31.90;29.27;;;23.60;56.30;;;;;;5139458;27;20465;-75
2022/05/13 10:26:07;;;;;;;30.13;28.40;;;23.60;55.40;;;;;;5142719;27;20443;-74
2022/05/13 10:28:39;;;;;;;29.27;27.40;;;23.70;56.00;;;;;;5145405;27;20454;-76
2022/05/13 10:31:10;;;;;;;31.67;29.57;;;23.90;55.80;;;;;;5148284;27;21234;-73
2022/05/13 10:33:43;;;;;;;31.87;29.73;;;24.20;54.80;;;;;;5143640;27;20483;-77
2022/05/13 10:36:13;;;;;;;31.47;29.57;;;24.20;54.00;;;;;;5147950;27;20448;-74
2022/05/13 10:38:45;;;;;;;29.93;28.10;;;24.00;54.30;;;;;;5137766;27;20537;-74
2022/05/13 10:41:23;;;;;;;30.60;28.10;;;23.70;54.40;;;;;;5133480;27;20558;-75
2022/05/13 10:43:57;;;;;;;31.00;28.93;;;23.40;55.90;;;;;;5139341;27;20837;-74
2022/05/13 10:46:28;;;;;;;28.57;26.67;;;23.40;55.60;;;;;;5143268;27;20448;-75
2022/05/13 10:48:58;;;;;;;31.63;28.77;;;22.90;56.30;;;;;;5143992;27;20821;-75
2022/05/13 10:51:33;;;;;;;29.33;27.33;;;22.90;57.00;;;;;;5152274;27;20555;-75
2022/05/13 10:54:26;;;;;;;28.90;27.00;;;22.60;57.00;;;;;;5147450;27;20473;-75
2022/05/13 10:57:12;;;;;;;28.80;27.00;;;22.70;58.00;;;;;;5145445;27;20962;-76
2022/05/13 10:59:53;;;;;;;33.80;31.80;;;22.90;56.40;;;;;;5142446;27;20511;-74
2022/05/13 11:02:49;;;;;;;30.00;28.30;;;22.70;57.40;;;;;;5142044;27;20459;-75
2022/05/13 11:05:34;;;;;;;34.50;31.93;;;22.90;57.20;;;;;;5134203;27;20488;-74
2022/05/13 11:08:16;;;;;;;29.77;27.77;;;23.20;58.50;;;;;;5140068;27;20986;-74
2022/05/13 11:10:53;;;;;;;30.03;28.10;;;23.40;57.30;;;;;;5145268;27;20949;-77
2022/05/13 11:13:33;;;;;;;30.50;28.17;;;23.30;56.60;;;;;;5138404;27;21102;-74
2022/05/13 11:16:05;;;;;;;31.70;29.70;;;23.50;57.20;;;;;;5143079;27;20456;-74
2022/05/13 11:18:42;;;;;;;29.90;28.00;;;23.50;56.50;;;;;;5144659;27;21316;-74
2022/05/13 11:21:22;;;;;;;29.43;27.33;;;23.50;55.80;;;;;;5141020;27;20453;-74
2022/05/13 11:27:14;;;;;;;30.60;28.70;;;23.90;56.40;;;;;;5087799;28;20431;-74
2022/05/13 11:29:52;;;;;;;31.67;29.80;;;23.80;54.40;;;;;;5078593;28;20460;-74
2022/05/13 11:32:27;;;;;;;32.20;30.10;;;23.10;56.60;;;;;;5118487;27;21066;-75
2022/05/13 11:35:05;;;;;;;28.13;26.27;;;23.10;55.90;;;;;;5142084;27;21264;-74
2022/05/13 11:37:37;;;;;;;31.90;29.70;;;22.80;56.60;;;;;;5140477;27;20855;-74
2022/05/13 11:40:17;;;;;;;30.27;28.27;;;22.70;57.30;;;;;;5145729;27;20462;-75
2022/05/13 11:43:22;;;;;;;30.67;28.73;;;23.30;57.30;;;;;;5137233;27;20462;-75
2022/05/13 11:46:10;;;;;;;29.70;27.90;;;23.70;56.80;;;;;;5137157;27;20476;-78
2022/05/13 11:48:41;;;;;;;31.60;29.50;;;24.00;56.40;;;;;;5146195;27;20565;-76
2022/05/13 11:51:15;;;;;;;29.50;27.90;;;23.90;54.80;;;;;;5131621;27;21016;-76
2022/05/13 11:53:49;;;;;;;31.57;29.57;;;23.60;55.50;;;;;;5141005;27;20463;-74
2022/05/13 11:56:32;;;;;;;30.90;28.80;;;23.60;56.20;;;;;;5143219;27;20452;-73
2022/05/13 11:59:03;;;;;;;28.70;26.80;;;23.90;56.00;;;;;;5137071;27;21114;-73
2022/05/13 12:02:07;;;;;;;32.20;30.30;;;23.90;55.20;;;;;;5145093;27;20223;-77
2022/05/13 12:04:38;;;;;;;31.40;29.60;;;23.50;55.20;;;;;;5143428;27;20478;-76
2022/05/13 12:07:27;;;;;;;30.97;29.07;;;23.00;56.80;;;;;;5147338;27;20546;-76
2022/05/13 12:09:57;;;;;;;32.20;30.20;;;23.30;57.50;;;;;;5146300;27;20500;-77
2022/05/13 12:12:49;;;;;;;31.23;29.10;;;23.60;56.40;;;;;;5140449;27;20460;-76
2022/05/13 12:15:33;;;;;;;32.07;29.77;;;23.80;56.00;;;;;;5148773;27;20460;-77
2022/05/13 12:18:07;;;;;;;30.07;28.27;;;24.20;55.00;;;;;;5144040;27;20487;-77
2022/05/13 12:20:44;;;;;;;29.77;27.70;;;24.30;55.10;;;;;;5145556;27;20448;-77
2022/05/13 12:23:16;;;;;;;30.57;28.67;;;24.20;54.40;;;;;;5140956;27;20570;-76
2022/05/13 12:25:54;;;;;;;30.80;28.80;;;23.80;55.50;;;;;;5144915;27;20493;-77
2022/05/13 12:28:40;;;;;;;29.40;27.60;;;23.60;55.80;;;;;;5132859;27;20551;-77
2022/05/13 12:31:34;;;;;;;30.30;28.40;;;23.60;55.70;;;;;;5141660;27;20526;-76
2022/05/13 12:39:54;;;;;;;32.80;30.90;;;24.20;55.60;;;;;;5147615;27;20459;-75
2022/05/13 12:42:38;;;;;;;30.40;28.50;;;24.40;55.90;;;;;;5135706;27;20457;-76
2022/05/13 12:45:11;;;;;;;32.60;30.37;;;24.80;54.20;;;;;;5139243;27;20887;-75
2022/05/13 12:47:56;;;;;;;30.80;28.93;;;24.70;53.10;;;;;;5142334;27;20464;-75
2022/05/13 12:50:39;;;;;;;31.50;29.57;;;24.30;53.60;;;;;;5143867;27;20482;-75
2022/05/13 12:53:44;;;;;;;30.93;28.60;;;24.00;54.10;;;;;;5134182;27;20535;-75
2022/05/13 12:56:19;;;;;;;31.50;29.40;;;24.00;54.60;;;;;;5138403;27;20462;-77
2022/05/13 12:58:54;;;;;;;30.90;28.43;;;23.70;54.40;;;;;;5136636;27;20463;-76
2022/05/13 13:01:21;;;;;;;32.07;29.60;;;23.70;55.10;;;;;;5132899;27;20440;-75
2022/05/13 13:03:50;;;;;;;30.90;28.80;;;23.70;55.70;;;;;;5137718;27;20470;-75
2022/05/13 13:06:21;;;;;;;30.87;28.70;;;23.50;55.00;;;;;;5141321;27;20460;-75
2022/05/13 13:08:51;;;;;;;30.10;28.07;;;23.10;56.30;;;;;;5138987;27;20477;-76
2022/05/13 13:11:27;;;;;;;30.10;28.00;;;22.80;56.80;;;;;;5148353;27;21054;-77
2022/05/13 13:14:01;;;;;;;30.70;28.80;;;22.80;57.20;;;;;;5142302;27;20565;-75
2022/05/13 13:16:36;;;;;;;28.67;26.90;;;23.10;56.80;;;;;;5135364;27;20455;-78
2022/05/13 13:19:09;;;;;;;28.50;26.40;;;22.90;55.90;;;;;;5147965;27;20451;-76
2022/05/13 13:21:38;;;;;;;31.20;29.40;;;22.80;56.40;;;;;;5148427;27;20511;-75